Time;durP1;ratioP1;P1;durP2;ratioP2;P2;SDS_P1;SDS_P2;PMS_P1;PMS_P2;Temp;Humidity;BMP_temperature;BMP_pressure;BME280_temperature;BME280_humidity;BME280_pressure;Samples;Min_cycle;Max_cycle;Signal;HPM_P1;HPM_P2
2021/05/02 00:00:29;;;;;;;22.45;8.60;;;512.90;1843.20;;;;;;4994220;28;20034;-67
2021/05/02 00:02:56;;;;;;;22.65;9.27;;;512.90;1843.20;;;;;;4994008;28;20031;-66
2021/05/02 00:05:24;;;;;;;19.27;8.57;;;512.80;1843.20;;;;;;4994360;28;20062;-66
2021/05/02 00:07:51;;;;;;;23.83;8.45;;;512.80;1817.60;;;;;;4994152;28;20027;-66
2021/05/02 00:10:19;;;;;;;28.67;10.75;;;512.80;1843.20;;;;;;4994268;28;20026;-66
2021/05/02 00:12:45;;;;;;;22.35;8.35;;;512.80;1817.60;;;;;;4994370;28;20026;-67
2021/05/02 00:15:14;;;;;;;22.15;8.85;;;512.80;1843.20;;;;;;4994120;28;20077;-66
2021/05/02 00:17:42;;;;;;;23.98;10.00;;;512.80;1843.20;;;;;;4994120;28;20034;-67
2021/05/02 00:20:09;;;;;;;20.02;9.05;;;512.80;1817.60;;;;;;4994029;28;20027;-66
2021/05/02 00:22:36;;;;;;;21.20;8.27;;;512.80;1817.60;;;;;;4994426;28;20046;-67
2021/05/02 00:25:07;;;;;;;20.73;8.38;;;512.80;1817.60;;;;;;4994419;28;20034;-66
2021/05/02 00:27:34;;;;;;;21.33;8.95;;;512.80;1817.60;;;;;;4994052;28;20018;-66
2021/05/02 00:30:00;;;;;;;21.60;8.80;;;512.80;1817.60;;;;;;4993980;28;20034;-66
2021/05/02 00:32:28;;;;;;;22.15;8.10;;;512.80;1792.00;;;;;;4994005;28;20019;-66
2021/05/02 00:34:54;;;;;;;17.83;8.07;;;512.80;1792.00;;;;;;4993850;28;20481;-66
2021/05/02 00:37:20;;;;;;;18.45;6.82;;;512.80;1792.00;;;;;;4994133;28;20358;-66
2021/05/02 00:39:46;;;;;;;14.95;7.57;;;512.80;1792.00;;;;;;4994041;28;20030;-68
2021/05/02 00:42:26;;;;;;;14.98;7.30;;;512.80;1792.00;;;;;;4994276;28;20029;-66
2021/05/02 00:45:03;;;;;;;12.80;6.85;;;512.70;1792.00;;;;;;4993780;28;20022;-66
2021/05/02 00:47:29;;;;;;;15.50;6.93;;;512.70;1792.00;;;;;;4993352;28;20073;-68
2021/05/02 00:50:04;;;;;;;15.90;7.30;;;512.70;1792.00;;;;;;4993672;28;20066;-65
2021/05/02 00:52:49;;;;;;;16.27;6.18;;;512.70;1792.00;;;;;;4993734;28;20022;-65
2021/05/02 00:55:27;;;;;;;16.98;7.45;;;512.70;1792.00;;;;;;4993849;28;20033;-65
2021/05/02 00:58:04;;;;;;;15.77;6.40;;;512.70;1792.00;;;;;;4993714;28;20042;-65
2021/05/02 01:00:33;;;;;;;12.15;6.05;;;512.70;1792.00;;;;;;4993710;28;20045;-65
2021/05/02 01:03:06;;;;;;;16.52;6.70;;;512.60;1766.40;;;;;;4993576;28;20114;-65
2021/05/02 01:05:32;;;;;;;17.75;5.78;;;512.70;1792.00;;;;;;4993797;28;20034;-65
2021/05/02 01:08:00;;;;;;;15.60;5.97;;;512.60;1792.00;;;;;;4993730;28;20499;-65
2021/05/02 01:10:27;;;;;;;16.38;6.70;;;512.60;1792.00;;;;;;4993750;28;20030;-65
2021/05/02 01:12:58;;;;;;;11.95;5.63;;;512.60;1766.40;;;;;;4993633;28;20026;-65
2021/05/02 01:15:28;;;;;;;12.77;5.18;;;512.60;1792.00;;;;;;4996534;28;20022;-65
2021/05/02 01:18:08;;;;;;;10.73;4.90;;;512.60;1766.40;;;;;;4997064;28;20045;-65
2021/05/02 01:20:41;;;;;;;20.27;5.50;;;512.60;1792.00;;;;;;4997089;28;20034;-65
2021/05/02 01:23:28;;;;;;;14.48;4.65;;;512.60;1766.40;;;;;;4997006;28;20077;-66
2021/05/02 01:26:00;;;;;;;15.88;5.35;;;512.50;1792.00;;;;;;4996949;28;20030;-66
2021/05/02 01:28:27;;;;;;;13.85;4.40;;;512.50;1792.00;;;;;;4996679;28;20058;-66
2021/05/02 01:30:54;;;;;;;10.20;4.13;;;512.50;1766.40;;;;;;4996877;28;20023;-67
2021/05/02 01:33:19;;;;;;;11.73;4.10;;;512.50;1792.00;;;;;;4997167;28;20030;-66
2021/05/02 01:35:46;;;;;;;9.75;4.38;;;512.40;1766.40;;;;;;4996606;28;20479;-66
2021/05/02 01:38:13;;;;;;;10.25;3.97;;;512.30;1766.40;;;;;;4996759;28;20473;-66
2021/05/02 01:40:39;;;;;;;11.15;3.63;;;512.40;1766.40;;;;;;4996941;28;20034;-66
2021/05/02 01:43:04;;;;;;;10.48;4.10;;;512.30;1766.40;;;;;;4996621;28;20042;-65
2021/05/02 01:45:30;;;;;;;9.27;3.15;;;512.30;1766.40;;;;;;4996408;28;20030;-66
2021/05/02 01:48:05;;;;;;;9.93;2.70;;;512.30;1766.40;;;;;;4996051;28;20499;-66
2021/05/02 01:50:50;;;;;;;10.65;3.88;;;512.30;1766.40;;;;;;4996612;28;20050;-66
2021/05/02 01:53:16;;;;;;;10.00;3.85;;;512.30;1766.40;;;;;;4996632;28;20022;-65
2021/05/02 01:55:43;;;;;;;7.57;3.47;;;512.30;1766.40;;;;;;4996581;28;20054;-65
2021/05/02 01:58:09;;;;;;;11.15;4.00;;;512.30;1792.00;;;;;;4996305;28;20473;-65
2021/05/02 02:01:06;;;;;;;12.40;3.22;;;512.20;1766.40;;;;;;4996143;28;20488;-66
2021/05/02 02:03:32;;;;;;;10.77;3.38;;;512.30;1766.40;;;;;;4917413;29;20047;-67
2021/05/02 02:05:58;;;;;;;12.93;3.83;;;512.20;1792.00;;;;;;4917415;29;20035;-67
2021/05/02 02:08:24;;;;;;;4.35;2.33;;;512.20;1766.40;;;;;;4917610;29;20056;-67
2021/05/02 02:10:52;;;;;;;8.50;2.95;;;512.20;1792.00;;;;;;4917293;29;20035;-67
2021/05/02 02:13:20;;;;;;;6.60;2.60;;;512.20;1766.40;;;;;;4917003;29;20394;-67
2021/05/02 02:15:47;;;;;;;10.73;2.88;;;512.10;1766.40;;;;;;4916969;29;20059;-67
2021/05/02 02:18:15;;;;;;;5.40;2.30;;;512.10;1792.00;;;;;;4917083;29;20025;-67
2021/05/02 02:20:44;;;;;;;5.82;2.67;;;512.10;1792.00;;;;;;4916860;29;20048;-67
2021/05/02 02:23:19;;;;;;;8.25;2.70;;;512.10;1792.00;;;;;;4917192;29;20040;-67
2021/05/02 02:25:48;;;;;;;7.85;2.67;;;512.10;1792.00;;;;;;4916633;29;20032;-67
2021/05/02 02:28:17;;;;;;;6.90;3.00;;;512.10;1792.00;;;;;;4916873;29;20051;-67
2021/05/02 02:30:56;;;;;;;7.95;2.70;;;512.10;1792.00;;;;;;4916851;29;20028;-66
2021/05/02 02:33:24;;;;;;;7.20;2.92;;;512.00;1792.00;;;;;;4916997;29;20119;-66
2021/05/02 02:35:52;;;;;;;6.18;2.45;;;512.00;1792.00;;;;;;4917338;29;20451;-66
2021/05/02 02:38:25;;;;;;;8.27;2.58;;;512.00;1766.40;;;;;;4916955;29;20032;-66
2021/05/02 02:40:54;;;;;;;5.63;2.22;;;512.00;1766.40;;;;;;4988253;28;20050;-66
2021/05/02 02:43:25;;;;;;;5.13;2.67;;;512.00;1766.40;;;;;;4995638;28;20023;-66
2021/05/02 02:45:56;;;;;;;4.30;2.13;;;487.30;1766.40;;;;;;4995351;28;20025;-66
2021/05/02 02:48:27;;;;;;;5.35;2.10;;;487.30;1740.80;;;;;;4995285;28;20068;-66
2021/05/02 02:50:56;;;;;;;3.28;1.63;;;487.30;1740.80;;;;;;4995298;28;20106;-66
2021/05/02 02:53:23;;;;;;;2.75;1.40;;;487.20;1740.80;;;;;;4995229;28;20031;-66
2021/05/02 02:56:13;;;;;;;3.45;1.30;;;487.20;1740.80;;;;;;4995374;28;20021;-66
2021/05/02 02:59:01;;;;;;;5.50;1.98;;;487.20;1740.80;;;;;;4995823;28;20022;-65
2021/05/02 03:01:27;;;;;;;3.03;1.52;;;487.20;1740.80;;;;;;4994949;28;20026;-66
2021/05/02 03:03:57;;;;;;;3.53;1.40;;;487.20;1740.80;;;;;;4995025;28;20457;-66
2021/05/02 03:06:26;;;;;;;3.22;1.75;;;487.20;1740.80;;;;;;4994992;28;20030;-66
2021/05/02 03:08:56;;;;;;;4.20;1.65;;;487.20;1740.80;;;;;;4994960;28;20034;-66
2021/05/02 03:11:23;;;;;;;4.68;1.70;;;487.10;1740.80;;;;;;4995298;28;20413;-66
2021/05/02 03:13:50;;;;;;;4.53;1.85;;;487.20;1740.80;;;;;;4995097;28;20054;-66
2021/05/02 03:16:20;;;;;;;6.13;1.58;;;487.10;1740.80;;;;;;4994967;28;20026;-66
2021/05/02 03:19:06;;;;;;;6.57;2.00;;;487.10;1766.40;;;;;;4994678;28;20114;-66
2021/05/02 03:21:44;;;;;;;6.43;1.77;;;487.10;1766.40;;;;;;4994799;28;20022;-66
2021/05/02 03:24:14;;;;;;;11.10;2.35;;;487.10;1766.40;;;;;;4994955;28;20099;-66
2021/05/02 03:26:41;;;;;;;5.45;2.15;;;487.10;1766.40;;;;;;4994589;28;20022;-66
2021/05/02 03:29:11;;;;;;;8.30;2.25;;;487.10;1766.40;;;;;;4994653;28;20113;-66
2021/05/02 03:31:43;;;;;;;6.82;1.63;;;487.10;1740.80;;;;;;4994127;28;20579;-66
2021/05/02 03:34:11;;;;;;;7.60;1.95;;;487.10;1766.40;;;;;;4994645;28;20085;-66
2021/05/02 03:36:48;;;;;;;5.40;1.60;;;487.10;1740.80;;;;;;4994091;28;20147;-66
2021/05/02 03:39:14;;;;;;;4.45;1.58;;;487.10;1740.80;;;;;;4994919;28;20097;-65
2021/05/02 03:41:40;;;;;;;5.07;1.90;;;487.00;1740.80;;;;;;4994402;28;20468;-66
2021/05/02 03:44:06;;;;;;;4.90;1.63;;;487.00;1740.80;;;;;;4994527;28;20023;-66
2021/05/02 03:46:33;;;;;;;4.20;1.80;;;487.00;1740.80;;;;;;4994171;28;20042;-66
2021/05/02 03:49:03;;;;;;;11.48;2.10;;;487.00;1740.80;;;;;;4994468;28;20361;-69
2021/05/02 03:51:33;;;;;;;10.10;2.30;;;487.00;1740.80;;;;;;4994360;28;20022;-66
2021/05/02 03:53:59;;;;;;;8.60;1.77;;;487.00;1740.80;;;;;;4994283;28;20082;-66
2021/05/02 03:56:43;;;;;;;9.52;1.77;;;487.00;1740.80;;;;;;4994203;28;20483;-66
2021/05/02 03:59:14;;;;;;;3.92;1.80;;;487.00;1740.80;;;;;;4994430;28;20022;-66
2021/05/02 04:01:54;;;;;;;4.25;1.50;;;487.00;1740.80;;;;;;4994168;28;20105;-66
2021/05/02 04:04:22;;;;;;;5.18;1.85;;;487.00;1740.80;;;;;;4994173;28;20077;-65
2021/05/02 04:06:49;;;;;;;10.70;2.45;;;487.00;1740.80;;;;;;4994334;28;20372;-66
2021/05/02 04:09:16;;;;;;;4.90;1.70;;;487.00;1740.80;;;;;;4994239;28;20046;-66
2021/05/02 04:11:43;;;;;;;6.90;1.90;;;487.10;1766.40;;;;;;4994183;28;20090;-66
2021/05/02 04:14:13;;;;;;;6.55;2.30;;;487.10;1740.80;;;;;;4994275;28;20038;-65
2021/05/02 04:16:40;;;;;;;3.63;2.15;;;487.10;1766.40;;;;;;4993992;28;20118;-64
2021/05/02 04:19:07;;;;;;;6.32;2.20;;;487.10;1766.40;;;;;;4993890;28;20122;-64
2021/05/02 04:21:35;;;;;;;4.00;2.13;;;487.10;1766.40;;;;;;4994066;28;20026;-64
2021/05/02 04:24:02;;;;;;;5.95;2.80;;;487.10;1766.40;;;;;;4994247;28;20057;-64
2021/05/02 04:26:27;;;;;;;5.20;2.40;;;487.10;1766.40;;;;;;4994473;28;20019;-64
2021/05/02 04:28:53;;;;;;;6.15;2.22;;;487.20;1766.40;;;;;;4993912;28;20039;-63
2021/05/02 04:31:19;;;;;;;8.07;1.98;;;487.10;1766.40;;;;;;4993838;28;20030;-64
2021/05/02 04:33:46;;;;;;;5.70;2.00;;;487.20;1766.40;;;;;;4993822;28;20086;-63
2021/05/02 04:36:12;;;;;;;6.15;2.00;;;487.20;1766.40;;;;;;4993876;28;20018;-64
2021/05/02 04:38:38;;;;;;;6.15;2.03;;;487.20;1766.40;;;;;;4993927;28;20113;-63
2021/05/02 04:41:04;;;;;;;3.20;1.50;;;487.20;1766.40;;;;;;4993608;28;20050;-64
2021/05/02 04:43:30;;;;;;;4.97;2.03;;;487.20;1766.40;;;;;;4993901;28;20461;-64
2021/05/02 04:45:56;;;;;;;4.60;2.33;;;487.30;1766.40;;;;;;4993676;28;20027;-64
2021/05/02 04:48:22;;;;;;;7.13;2.50;;;487.30;1766.40;;;;;;4995243;28;20473;-64
2021/05/02 04:50:48;;;;;;;3.28;1.60;;;487.30;1792.00;;;;;;4997814;28;20036;-64
2021/05/02 04:53:13;;;;;;;4.30;1.90;;;512.00;1766.40;;;;;;4997434;28;20475;-64
2021/05/02 04:55:39;;;;;;;7.63;2.80;;;512.00;1766.40;;;;;;4997534;28;20057;-64
2021/05/02 04:58:08;;;;;;;7.97;2.28;;;512.10;1792.00;;;;;;4998025;28;20053;-65
2021/05/02 05:00:35;;;;;;;10.02;1.90;;;512.10;1766.40;;;;;;4997332;28;20054;-66
2021/05/02 05:03:02;;;;;;;6.57;2.17;;;512.10;1792.00;;;;;;4997217;28;20105;-66
2021/05/02 05:05:28;;;;;;;6.57;2.30;;;512.10;1766.40;;;;;;4997168;28;20568;-66
2021/05/02 05:07:54;;;;;;;6.90;2.00;;;512.20;1792.00;;;;;;4997144;28;20050;-66
2021/05/02 05:10:19;;;;;;;9.63;2.00;;;512.20;1792.00;;;;;;4997282;28;20049;-66
2021/05/02 05:12:45;;;;;;;5.07;1.80;;;512.20;1792.00;;;;;;4997533;28;20014;-66
2021/05/02 05:15:11;;;;;;;6.35;2.53;;;512.20;1792.00;;;;;;4997166;28;20037;-66
2021/05/02 05:17:37;;;;;;;6.32;2.30;;;512.20;1792.00;;;;;;4997488;28;20062;-66
2021/05/02 05:20:05;;;;;;;6.53;2.65;;;512.30;1792.00;;;;;;4997189;28;20405;-66
2021/05/02 05:22:31;;;;;;;9.55;3.35;;;512.30;1792.00;;;;;;4996777;28;20026;-66
2021/05/02 05:24:58;;;;;;;4.50;2.20;;;512.30;1792.00;;;;;;4997220;28;20364;-66
2021/05/02 05:27:24;;;;;;;7.05;2.90;;;512.30;1792.00;;;;;;4997015;28;20026;-66
2021/05/02 05:29:50;;;;;;;6.80;2.05;;;512.30;1792.00;;;;;;4997060;28;20428;-66
2021/05/02 05:32:16;;;;;;;16.77;2.90;;;512.40;1792.00;;;;;;4996885;28;20026;-66
2021/05/02 05:34:42;;;;;;;23.95;3.30;;;512.40;1792.00;;;;;;4996746;28;20089;-66
2021/05/02 05:37:07;;;;;;;16.23;2.67;;;512.40;1817.60;;;;;;4996776;28;20019;-67
2021/05/02 05:39:33;;;;;;;9.70;2.53;;;512.50;1817.60;;;;;;4996884;28;20389;-67
2021/05/02 05:41:59;;;;;;;12.15;3.45;;;512.50;1817.60;;;;;;4996949;28;20033;-66
2021/05/02 05:44:25;;;;;;;12.40;3.42;;;512.60;1817.60;;;;;;4979481;28;20038;-66
2021/05/02 05:46:50;;;;;;;23.27;4.05;;;512.60;1792.00;;;;;;4995036;28;20046;-66
2021/05/02 05:49:19;;;;;;;17.77;4.07;;;512.70;1792.00;;;;;;4994845;28;20058;-65
2021/05/02 05:51:47;;;;;;;13.70;4.35;;;512.70;1817.60;;;;;;4995041;28;20026;-65
2021/05/02 05:54:12;;;;;;;9.93;3.55;;;512.80;1792.00;;;;;;4995106;28;20396;-65
2021/05/02 05:56:38;;;;;;;11.73;4.10;;;512.90;1792.00;;;;;;4995185;28;20026;-65
2021/05/02 05:59:04;;;;;;;11.32;4.13;;;537.60;1817.60;;;;;;4994807;28;20018;-64
2021/05/02 06:01:30;;;;;;;12.00;3.58;;;537.60;1817.60;;;;;;4995870;28;20097;-64
2021/05/02 06:03:56;;;;;;;24.25;5.22;;;537.60;1817.60;;;;;;4996306;28;20027;-64
2021/05/02 06:06:23;;;;;;;14.30;4.38;;;537.70;1792.00;;;;;;4996329;28;20030;-65
2021/05/02 06:08:48;;;;;;;19.30;3.88;;;537.80;1792.00;;;;;;4996026;28;20049;-64
2021/05/02 06:11:14;;;;;;;13.32;4.97;;;537.80;1766.40;;;;;;4996214;28;20034;-65
2021/05/02 06:13:40;;;;;;;13.32;4.10;;;537.90;1766.40;;;;;;4996221;28;20492;-67
2021/05/02 06:16:06;;;;;;;11.68;4.13;;;537.90;1766.40;;;;;;4996128;28;20027;-67
2021/05/02 06:18:31;;;;;;;11.48;3.47;;;538.00;1740.80;;;;;;4995899;28;20027;-67
2021/05/02 06:20:57;;;;;;;9.38;2.80;;;538.10;1740.80;;;;;;4977589;28;20081;-67
2021/05/02 06:23:23;;;;;;;9.98;2.45;;;538.10;1715.20;;;;;;4995898;28;20420;-67
2021/05/02 06:25:49;;;;;;;9.60;2.17;;;538.30;1715.20;;;;;;4995933;28;20027;-67
2021/05/02 06:28:15;;;;;;;9.93;2.38;;;538.30;1689.60;;;;;;4995782;28;20163;-67
2021/05/02 06:30:41;;;;;;;8.60;2.30;;;538.40;1689.60;;;;;;4995573;28;20085;-67
2021/05/02 06:33:06;;;;;;;13.13;2.40;;;538.50;1689.60;;;;;;4995785;28;20061;-67
2021/05/02 06:35:32;;;;;;;11.20;2.38;;;563.20;1715.20;;;;;;4995943;28;20022;-67
2021/05/02 06:37:58;;;;;;;8.90;2.67;;;563.20;1689.60;;;;;;4995055;28;20436;-67
2021/05/02 06:40:24;;;;;;;10.55;2.50;;;563.20;1689.60;;;;;;4995563;28;20033;-67
2021/05/02 06:42:49;;;;;;;6.40;2.67;;;563.20;1689.60;;;;;;4995426;28;20034;-67
2021/05/02 06:45:16;;;;;;;8.85;2.47;;;563.40;1689.60;;;;;;4995248;28;20456;-67
2021/05/02 06:47:42;;;;;;;11.45;2.50;;;563.50;1689.60;;;;;;4995402;28;20057;-67
2021/05/02 06:50:09;;;;;;;13.02;3.25;;;563.80;1689.60;;;;;;4995439;28;20038;-67
2021/05/02 06:52:35;;;;;;;11.38;3.13;;;564.10;1689.60;;;;;;4995199;28;20030;-68
2021/05/02 06:55:00;;;;;;;12.05;3.00;;;589.00;1664.00;;;;;;4994688;28;20165;-69
2021/05/02 06:57:26;;;;;;;20.65;3.33;;;589.30;1612.80;;;;;;4995124;28;20033;-67
2021/05/02 06:59:52;;;;;;;17.15;3.10;;;589.60;1587.20;;;;;;4995437;28;20022;-67
2021/05/02 07:02:17;;;;;;;18.90;3.20;;;614.50;1536.00;;;;;;4995010;28;20030;-67
2021/05/02 07:04:43;;;;;;;12.15;2.65;;;614.80;1510.40;;;;;;4995223;28;20105;-71
2021/05/02 07:07:09;;;;;;;12.00;2.67;;;614.90;1459.20;;;;;;4994852;28;20038;-68
2021/05/02 07:09:35;;;;;;;9.60;2.60;;;615.20;1433.60;;;;;;4994887;28;20069;-66
2021/05/02 07:12:01;;;;;;;8.73;2.20;;;640.00;1382.40;;;;;;4994208;28;20022;-66
2021/05/02 07:14:26;;;;;;;32.30;3.78;;;640.20;1356.80;;;;;;4994879;28;20105;-65
2021/05/02 07:16:52;;;;;;;21.67;3.22;;;640.50;1331.20;;;;;;4995062;28;20106;-66
2021/05/02 07:19:21;;;;;;;19.55;3.10;;;640.70;1305.60;;;;;;4995160;28;20030;-67
2021/05/02 07:21:47;;;;;;;14.65;3.50;;;640.90;1305.60;;;;;;4994703;28;20022;-66
2021/05/02 07:24:15;;;;;;;21.25;3.03;;;665.80;1305.60;;;;;;4994737;28;20097;-67
2021/05/02 07:26:41;;;;;;;19.33;3.10;;;666.00;1305.60;;;;;;4994808;28;20034;-66
2021/05/02 07:29:07;;;;;;;17.45;3.08;;;666.10;1280.00;;;;;;4994616;28;20121;-66
2021/05/02 07:31:33;;;;;;;19.02;3.88;;;666.30;1254.40;;;;;;4994723;28;20449;-67
2021/05/02 07:33:59;;;;;;;14.25;3.28;;;666.50;1254.40;;;;;;4994708;28;20081;-66
2021/05/02 07:36:25;;;;;;;19.55;3.05;;;691.20;1254.40;;;;;;4994602;28;20461;-67
2021/05/02 07:38:51;;;;;;;19.35;2.72;;;691.30;1254.40;;;;;;4994818;28;20034;-67
2021/05/02 07:41:17;;;;;;;15.68;3.05;;;691.50;1254.40;;;;;;4994669;28;20022;-70
2021/05/02 07:43:42;;;;;;;14.50;3.28;;;691.70;1254.40;;;;;;4994181;28;20030;-68
2021/05/02 07:46:08;;;;;;;15.77;3.45;;;691.90;1228.80;;;;;;4994315;28;20050;-68
2021/05/02 07:48:35;;;;;;;10.77;3.45;;;692.10;1228.80;;;;;;4994439;28;20468;-68
2021/05/02 07:51:01;;;;;;;12.93;3.22;;;716.80;1228.80;;;;;;4994538;28;20022;-68
2021/05/02 07:53:27;;;;;;;18.48;3.05;;;717.00;1203.20;;;;;;4994634;28;20089;-68
2021/05/02 07:55:52;;;;;;;16.27;3.28;;;717.00;1177.60;;;;;;4994350;28;20472;-68
2021/05/02 07:58:18;;;;;;;15.02;3.10;;;717.00;1177.60;;;;;;4994932;28;20030;-69
2021/05/02 08:00:44;;;;;;;12.85;2.97;;;717.20;1177.60;;;;;;4994265;28;20022;-68
2021/05/02 08:03:10;;;;;;;13.10;3.22;;;717.20;1177.60;;;;;;4994326;28;20029;-69
2021/05/02 08:05:35;;;;;;;12.32;2.65;;;717.20;1177.60;;;;;;4994529;28;20038;-68
2021/05/02 08:08:01;;;;;;;16.35;3.75;;;717.30;1152.00;;;;;;4994563;28;20030;-69
2021/05/02 08:10:28;;;;;;;13.00;3.67;;;717.50;1177.60;;;;;;4994156;28;20042;-69
2021/05/02 08:12:57;;;;;;;16.83;3.60;;;717.60;1152.00;;;;;;4994418;28;20030;-69
2021/05/02 08:15:23;;;;;;;13.57;3.13;;;717.70;1152.00;;;;;;4994103;28;20110;-68
2021/05/02 08:17:49;;;;;;;13.02;3.33;;;742.50;1152.00;;;;;;4993655;28;20050;-69
2021/05/02 08:20:15;;;;;;;11.13;3.22;;;742.60;1152.00;;;;;;4994117;28;20065;-68
2021/05/02 08:22:41;;;;;;;13.98;3.20;;;742.60;1126.40;;;;;;4994828;28;20037;-68
2021/05/02 08:25:08;;;;;;;11.57;2.72;;;742.70;1126.40;;;;;;4980529;28;20380;-69
2021/05/02 08:27:34;;;;;;;9.40;2.40;;;742.90;1126.40;;;;;;4997900;28;20046;-67
2021/05/02 08:30:00;;;;;;;15.23;3.78;;;742.90;1100.80;;;;;;4992034;28;20564;-67
2021/05/02 08:32:26;;;;;;;11.57;2.90;;;742.90;1075.20;;;;;;4996053;28;20083;-65
2021/05/02 08:34:52;;;;;;;8.27;2.50;;;743.00;1075.20;;;;;;4996316;28;20030;-66
2021/05/02 08:37:19;;;;;;;18.52;3.10;;;743.10;1075.20;;;;;;4994869;28;20717;-66
2021/05/02 08:39:44;;;;;;;13.00;3.63;;;743.20;1075.20;;;;;;4994800;28;20046;-66
2021/05/02 08:42:10;;;;;;;14.15;3.55;;;743.20;1075.20;;;;;;4994425;28;20377;-66
2021/05/02 08:44:36;;;;;;;9.38;2.50;;;768.00;1049.60;;;;;;4994881;28;20022;-67
2021/05/02 08:47:04;;;;;;;25.92;3.40;;;768.10;1049.60;;;;;;4994735;28;20046;-67
2021/05/02 08:49:30;;;;;;;22.45;3.50;;;768.20;1049.60;;;;;;4995019;28;20113;-66
2021/05/02 08:51:56;;;;;;;26.05;4.22;;;768.50;1049.60;;;;;;4994775;28;20031;-68
2021/05/02 08:54:22;;;;;;;12.30;3.63;;;768.70;1024.00;;;;;;4994995;28;20045;-66
2021/05/02 08:56:53;;;;;;;16.70;3.45;;;768.70;1024.00;;;;;;4994731;28;20022;-66
2021/05/02 08:59:18;;;;;;;15.05;2.70;;;768.70;1024.00;;;;;;4994566;28;20030;-66
2021/05/02 09:01:45;;;;;;;14.40;3.10;;;768.50;998.40;;;;;;4994748;28;20026;-70
2021/05/02 09:04:11;;;;;;;11.75;2.80;;;768.60;998.40;;;;;;4994971;28;20041;-68
2021/05/02 09:06:37;;;;;;;18.42;4.07;;;768.70;998.40;;;;;;4992467;28;20031;-65
2021/05/02 09:09:09;;;;;;;15.93;3.35;;;768.70;998.40;;;;;;4977212;28;20059;-66
2021/05/02 09:11:42;;;;;;;13.45;2.83;;;768.80;998.40;;;;;;4977882;28;20026;-69
2021/05/02 09:14:10;;;;;;;;;;;793.60;1024.00;;;;;;4978121;28;20477;-65
2021/05/02 09:17:12;;;;;;;32.95;4.22;;;793.70;1024.00;;;;;;4977536;28;20283;-65
2021/05/02 09:19:46;;;;;;;24.77;4.28;;;793.60;1024.00;;;;;;4977778;28;20381;-68
2021/05/02 09:22:13;;;;;;;30.27;4.35;;;793.60;998.40;;;;;;4977665;28;20035;-65
2021/05/02 09:24:40;;;;;;;18.80;3.38;;;793.60;998.40;;;;;;4977598;28;20019;-65
2021/05/02 09:27:13;;;;;;;13.65;2.67;;;768.90;972.80;;;;;;4977559;28;20033;-66
2021/05/02 09:29:41;;;;;;;18.15;3.15;;;768.80;972.80;;;;;;4977387;28;20067;-66
2021/05/02 09:32:09;;;;;;;21.30;4.75;;;768.90;972.80;;;;;;4977356;28;20054;-65
2021/05/02 09:34:35;;;;;;;31.13;5.80;;;768.80;972.80;;;;;;4976220;28;20066;-66
2021/05/02 09:37:03;;;;;;;29.80;4.85;;;768.70;998.40;;;;;;4976908;28;20489;-65
2021/05/02 09:39:46;;;;;;;30.23;4.75;;;768.40;972.80;;;;;;4977009;28;20034;-65
2021/05/02 09:42:17;;;;;;;16.90;3.78;;;768.40;972.80;;;;;;4977325;28;20463;-68
2021/05/02 09:44:57;;;;;;;25.63;6.40;;;768.50;972.80;;;;;;4977330;28;20038;-65
2021/05/02 09:47:26;;;;;;;22.27;3.72;;;768.50;972.80;;;;;;4964179;28;20054;-68
2021/05/02 09:50:04;;;;;;;16.45;3.85;;;768.20;972.80;;;;;;4957854;29;20035;-65
2021/05/02 09:52:42;;;;;;;22.65;4.60;;;768.10;998.40;;;;;;4957896;29;20019;-68
2021/05/02 09:55:31;;;;;;;19.85;4.00;;;768.00;998.40;;;;;;4957613;29;20969;-65
2021/05/02 09:58:10;;;;;;;17.13;3.42;;;743.30;998.40;;;;;;4957806;29;20146;-72
2021/05/02 10:00:40;;;;;;;19.25;3.80;;;768.00;998.40;;;;;;4957599;29;20037;-69
2021/05/02 10:03:22;;;;;;;25.65;4.40;;;768.10;998.40;;;;;;4957766;29;20389;-71
2021/05/02 10:06:00;;;;;;;37.55;5.43;;;768.20;972.80;;;;;;4957271;29;20415;-70
2021/05/02 10:08:31;;;;;;;21.20;4.53;;;768.00;972.80;;;;;;4940049;29;20183;-70
2021/05/02 10:11:00;;;;;;;35.30;5.75;;;743.20;998.40;;;;;;4957149;29;20031;-69
2021/05/02 10:13:26;;;;;;;31.60;4.55;;;743.10;998.40;;;;;;4957190;29;20050;-69
2021/05/02 10:15:52;;;;;;;19.10;3.35;;;743.20;972.80;;;;;;4957447;29;20031;-65
2021/05/02 10:18:18;;;;;;;18.67;3.25;;;743.10;972.80;;;;;;4957108;29;20034;-67
2021/05/02 10:20:45;;;;;;;14.93;3.83;;;743.00;972.80;;;;;;4956875;29;20027;-68
2021/05/02 10:23:14;;;;;;;23.48;3.95;;;743.00;972.80;;;;;;4957172;29;20031;-67
2021/05/02 10:25:45;;;;;;;17.77;4.18;;;743.10;972.80;;;;;;4957244;29;20098;-66
2021/05/02 10:28:21;;;;;;;29.88;4.03;;;743.20;947.20;;;;;;4956641;29;20106;-70
2021/05/02 10:30:50;;;;;;;88.28;7.18;;;743.30;947.20;;;;;;4957197;29;20031;-71
2021/05/02 10:33:31;;;;;;;79.80;6.68;;;743.20;972.80;;;;;;4956874;29;20031;-71
2021/05/02 10:36:00;;;;;;;49.90;5.68;;;743.10;1024.00;;;;;;4972644;28;20540;-67
2021/05/02 10:38:48;;;;;;;117.68;10.68;;;742.90;972.80;;;;;;4974468;28;20030;-69
2021/05/02 10:41:45;;;;;;;79.03;8.90;;;742.90;998.40;;;;;;4970290;28;20050;-69
2021/05/02 10:44:14;;;;;;;57.63;7.13;;;743.00;972.80;;;;;;4888678;29;20041;-69
2021/05/02 10:46:47;;;;;;;61.03;7.47;;;742.90;972.80;;;;;;4899167;29;20082;-66
2021/05/02 10:49:18;;;;;;;40.70;5.30;;;743.00;972.80;;;;;;4897700;29;20048;-65
2021/05/02 10:51:44;;;;;;;33.60;4.90;;;743.10;972.80;;;;;;4897493;29;20029;-65
2021/05/02 10:54:13;;;;;;;38.33;6.10;;;743.10;947.20;;;;;;4897451;29;20048;-68
2021/05/02 10:56:42;;;;;;;49.30;6.60;;;768.00;947.20;;;;;;4897562;29;20384;-69
2021/05/02 10:59:07;;;;;;;45.00;5.55;;;768.00;947.20;;;;;;4897427;29;20029;-65
2021/05/02 11:01:33;;;;;;;33.75;6.05;;;768.00;947.20;;;;;;4897263;29;20060;-65
2021/05/02 11:03:59;;;;;;;42.30;5.18;;;768.00;947.20;;;;;;4897529;29;20475;-65
2021/05/02 11:06:41;;;;;;;24.63;4.80;;;743.30;947.20;;;;;;4897433;29;20059;-68
2021/05/02 11:09:17;;;;;;;27.52;4.53;;;743.20;947.20;;;;;;4897086;29;20061;-68
2021/05/02 11:11:50;;;;;;;26.60;5.32;;;743.10;947.20;;;;;;4897003;29;20028;-71
2021/05/02 11:14:21;;;;;;;26.35;4.53;;;743.20;947.20;;;;;;4897309;29;20051;-68
2021/05/02 11:16:59;;;;;;;26.15;4.30;;;743.10;921.60;;;;;;4897106;29;20092;-67
2021/05/02 11:19:35;;;;;;;23.48;4.85;;;743.10;921.60;;;;;;4899374;29;20036;-67
2021/05/02 11:22:10;;;;;;;19.50;4.30;;;742.90;947.20;;;;;;4988678;28;20042;-68
2021/05/02 11:24:39;;;;;;;24.77;4.55;;;742.70;947.20;;;;;;4991967;28;20045;-69
2021/05/02 11:29:47;;;;;;;61.88;6.18;;;717.60;972.80;;;;;;4992780;28;20026;-67
2021/05/02 11:32:13;;;;;;;42.67;5.63;;;717.30;1075.20;;;;;;4988892;28;20010;-66
2021/05/02 11:35:05;;;;;;;353.83;27.23;;;717.00;1100.80;;;;;;4992804;28;20112;-68
2021/05/02 11:37:39;;;;;;;246.02;16.80;;;692.10;1100.80;;;;;;4989853;28;20077;-73
2021/05/02 11:40:24;;;;;;;160.40;15.25;;;691.80;1177.60;;;;;;4988185;28;20029;-71
2021/05/02 11:42:59;;;;;;;88.68;8.93;;;691.70;1254.40;;;;;;4990037;28;20503;-69
2021/05/02 11:45:29;;;;;;;35.95;5.75;;;691.70;1280.00;;;;;;4994690;28;20031;-76
2021/05/02 11:47:55;;;;;;;34.85;5.13;;;691.70;1280.00;;;;;;4993952;28;20050;-72
2021/05/02 11:50:24;;;;;;;17.40;3.65;;;691.70;1280.00;;;;;;4994565;28;20435;-71
2021/05/02 11:52:51;;;;;;;14.45;3.95;;;691.80;1280.00;;;;;;4994260;28;20053;-72
2021/05/02 11:55:27;;;;;;;13.38;4.07;;;691.80;1280.00;;;;;;4994342;28;20026;-72
2021/05/02 11:57:54;;;;;;;33.47;5.90;;;691.80;1152.00;;;;;;4994290;28;20026;-70
2021/05/02 12:00:50;;;;;;;22.65;4.00;;;691.80;1126.40;;;;;;4994580;28;20437;-70
2021/05/02 12:03:18;;;;;;;22.33;4.20;;;691.90;1126.40;;;;;;4896663;29;20068;-71
2021/05/02 12:05:51;;;;;;;22.83;4.70;;;691.80;1126.40;;;;;;4896474;29;20036;-71
2021/05/02 12:08:20;;;;;;;25.63;3.60;;;691.90;1100.80;;;;;;4896396;29;20047;-70
2021/05/02 12:11:01;;;;;;;19.13;3.78;;;691.90;1126.40;;;;;;4896542;29;20032;-71
2021/05/02 12:13:37;;;;;;;31.52;4.05;;;692.00;1075.20;;;;;;4896376;29;20459;-71
2021/05/02 12:16:14;;;;;;;22.98;4.25;;;716.80;1049.60;;;;;;4896181;29;20526;-68
2021/05/02 12:18:58;;;;;;;19.85;3.67;;;716.90;1049.60;;;;;;4896463;29;20048;-68
2021/05/02 12:21:43;;;;;;;24.02;3.95;;;716.90;1024.00;;;;;;4895860;29;20036;-71
2021/05/02 12:24:20;;;;;;;22.27;3.97;;;716.90;1024.00;;;;;;4892985;29;20029;-71
2021/05/02 12:26:53;;;;;;;22.20;4.13;;;716.90;998.40;;;;;;4891396;29;20072;-68